Arcola, Virginia
Current Conditions -  °F | °C
As of 5:52 PM on Tuesday 21 Oct 2014 (Local Time) from KIAD Reporting Station
Light Rain Light Rain  
Wind Chill: 13°   Ceiling: 4400
Heat Index: 13°   Visibility: 10mi
Dew Point: 11°   Wind: 14mph
Humidity: 89%   Direction: 310°NW
Pressure: 29.85"   Gusts: NA
Location:  38.95°N, 77.53°W
Report Text: KIAD 212152Z 31012KT 10SM -RA BKN044 OVC070 13/11 A2985 RMK AO2 RAB02 SLP108 P0000 T01280111
Loading
Personal Weather Stations






























Interactive Weather Map
Tropical Storm Tracking
New forecast layout! Learn more

10-Day Weather Forecast

Advertisements
Track Severe Weather on mobile